EKRK/RKE METAR and TAF weather

Enter ICAO airport designator
Station Type Date Time Source
EKRK METAR 2020/09/23 19:20 UTC NOAA

EKRK 231920Z AUTO 15006KT 9999 NCD 14/10 Q1002


Station Type Date Time Source
EKRK Decoded METAR 2020/09/23 19:20 UTC NOAA

Koebenhavn / Roskilde, Denmark (EKRK) 55-35N 012-08E 44M
Sep 23, 2020 - 03:20 PM EDT / 2020.09.23 1920 UTC
Wind: from the SSE (150 degrees) at 7 MPH (6 KT):0
Visibility: greater than 7 mile(s):0
Temperature: 57 F (14 C)
Dew Point: 50 F (10 C)
Relative Humidity: 76%
Pressure (altimeter): 29.59 in. Hg (1002 hPa)
ob: EKRK 231920Z AUTO 15006KT 9999 NCD 14/10 Q1002
cycle: 19

Station Type Date Time Source
EKRK TAF UTC NOAA

Error!

Example: see airport list